Time;durP1;ratioP1;P1;durP2;ratioP2;P2;SDS_P1;SDS_P2;PMS_P1;PMS_P2;Temp;Humidity;BMP_temperature;BMP_pressure;BME280_temperature;BME280_humidity;BME280_pressure;Samples;Min_cycle;Max_cycle;Signal;HPM_P1;HPM_P2
2023/01/24 00:01:19;;;;;;;14.40;10.48;;;4.10;1.00;;;;;;4764641;30;20196;-86
2023/01/24 00:03:45;;;;;;;16.23;10.73;;;4.10;3.40;;;;;;4767542;30;20278;-85
2023/01/24 00:06:11;;;;;;;20.70;12.57;;;4.10;1.00;;;;;;4765653;30;20207;-86
2023/01/24 00:08:36;;;;;;;18.27;11.97;;;4.10;1.00;;;;;;4765697;30;20673;-86
2023/01/24 00:11:08;;;;;;;17.20;11.77;;;4.10;1.00;;;;;;4764953;30;20245;-86
2023/01/24 00:13:35;;;;;;;20.77;12.55;;;4.10;1.00;;;;;;4765315;30;20218;-86
2023/01/24 00:16:18;;;;;;;23.38;12.38;;;4.10;1.00;;;;;;4765501;30;20572;-86
2023/01/24 00:18:44;;;;;;;14.73;11.70;;;4.10;1.00;;;;;;4765805;30;20206;-85
2023/01/24 00:21:18;;;;;;;16.00;11.90;;;4.10;1.00;;;;;;4765866;30;20225;-86
2023/01/24 00:23:47;;;;;;;18.63;12.68;;;4.10;42.00;;;;;;4767518;30;20206;-86
2023/01/24 00:26:13;;;;;;;18.80;14.30;;;4.20;1.00;;;;;;4765769;30;20198;-87
2023/01/24 00:28:39;;;;;;;17.52;13.07;;;4.20;1.00;;;;;;4765356;30;20222;-86
2023/01/24 00:31:05;;;;;;;20.07;13.23;;;4.20;1.00;;;;;;4765172;30;20635;-86
2023/01/24 00:33:31;;;;;;;21.88;13.63;;;4.20;1.00;;;;;;4780971;29;20461;-86
2023/01/24 00:35:57;;;;;;;19.23;13.45;;;4.20;1.00;;;;;;4778510;29;20678;-86
2023/01/24 00:38:22;;;;;;;18.90;14.00;;;4.20;45.20;;;;;;4767425;30;20207;-86
2023/01/24 00:40:49;;;;;;;23.10;13.90;;;4.20;1.00;;;;;;4766426;30;20687;-86
2023/01/24 00:43:15;;;;;;;21.60;13.30;;;4.20;1.00;;;;;;4765590;30;20215;-86
2023/01/24 00:45:40;;;;;;;22.20;12.90;;;4.30;16.90;;;;;;4766205;30;20207;-86
2023/01/24 00:48:07;;;;;;;23.40;15.03;;;4.30;93.70;;;;;;4763706;30;20552;-86
2023/01/24 00:50:33;;;;;;;20.15;14.10;;;4.30;1.00;;;;;;4766725;30;20653;-86
2023/01/24 00:52:58;;;;;;;19.67;13.30;;;4.30;6.00;;;;;;4764610;30;20215;-86
2023/01/24 00:55:24;;;;;;;22.30;15.00;;;4.30;19.30;;;;;;4780234;29;20191;-86
2023/01/24 00:57:50;;;;;;;19.50;14.30;;;4.30;1.00;;;;;;4764948;30;20219;-86
2023/01/24 01:00:16;;;;;;;18.97;13.10;;;4.30;1.00;;;;;;4766668;30;20354;-86
2023/01/24 01:02:41;;;;;;;23.13;15.30;;;4.30;1.00;;;;;;4762311;30;20223;-86
2023/01/24 01:05:07;;;;;;;20.37;13.47;;;4.30;1.00;;;;;;4766853;30;20211;-86
2023/01/24 01:07:33;;;;;;;23.50;14.13;;;4.20;53.90;;;;;;4766173;30;20222;-86
2023/01/24 01:09:58;;;;;;;19.07;13.10;;;4.20;99.90;;;;;;4766814;30;20184;-86
2023/01/24 01:12:24;;;;;;;22.00;14.00;;;4.20;99.90;;;;;;4764746;30;20659;-86
2023/01/24 01:14:49;;;;;;;23.33;14.20;;;4.20;99.90;;;;;;4764891;30;20517;-86
2023/01/24 01:17:15;;;;;;;18.80;12.87;;;4.20;99.90;;;;;;4764423;30;20200;-86
2023/01/24 01:19:40;;;;;;;20.10;13.10;;;4.20;99.90;;;;;;4766732;30;20199;-89
2023/01/24 01:22:07;;;;;;;21.17;13.33;;;4.20;99.90;;;;;;4765436;30;20454;-85
2023/01/24 01:24:32;;;;;;;21.95;14.43;;;4.20;99.90;;;;;;4757882;30;20188;-88
2023/01/24 01:26:58;;;;;;;20.17;13.50;;;4.20;1.00;;;;;;4762742;30;20230;-88
2023/01/24 01:29:24;;;;;;;20.45;13.02;;;4.10;1.00;;;;;;4778782;29;20192;-86
2023/01/24 01:31:49;;;;;;;22.00;14.97;;;4.10;1.00;;;;;;4765185;30;20196;-86
2023/01/24 01:34:15;;;;;;;21.60;13.47;;;4.10;1.00;;;;;;4764211;30;20258;-86
2023/01/24 01:36:40;;;;;;;18.30;12.77;;;4.20;15.50;;;;;;4766235;30;20227;-86
2023/01/24 01:39:06;;;;;;;19.07;12.33;;;4.10;1.00;;;;;;4765062;30;20223;-85
2023/01/24 01:41:32;;;;;;;19.80;13.30;;;4.10;1.00;;;;;;4766539;30;20294;-86
2023/01/24 01:47:01;;;;;;;18.38;12.65;;;4.10;1.00;;;;;;4765391;30;20236;-86
2023/01/24 01:49:27;;;;;;;20.63;11.80;;;4.10;1.00;;;;;;4765122;30;20212;-85
2023/01/24 01:51:58;;;;;;;17.60;12.27;;;4.10;1.00;;;;;;4765645;30;20531;-86
2023/01/24 01:54:29;;;;;;;17.83;12.35;;;4.10;1.00;;;;;;4764996;30;20196;-86
2023/01/24 01:57:06;;;;;;;21.83;13.90;;;4.10;1.00;;;;;;4762439;30;20264;-86
2023/01/24 01:59:38;;;;;;;19.10;12.48;;;4.10;1.00;;;;;;4764677;30;20211;-85
2023/01/24 02:02:05;;;;;;;18.45;12.50;;;4.10;1.00;;;;;;4757407;30;20192;-86
2023/01/24 02:04:36;;;;;;;18.23;11.43;;;4.20;1.00;;;;;;4766743;30;20200;-86
2023/01/24 02:07:07;;;;;;;19.80;13.10;;;4.20;1.00;;;;;;4767785;30;20275;-85
2023/01/24 02:09:39;;;;;;;20.50;12.15;;;4.10;1.00;;;;;;4784763;29;20256;-86
2023/01/24 02:12:10;;;;;;;18.10;11.90;;;4.20;1.00;;;;;;4779576;30;20190;-86
2023/01/24 02:17:22;;;;;;;20.75;12.18;;;4.10;1.00;;;;;;4769032;30;20207;-85
2023/01/24 02:20:06;;;;;;;17.85;12.75;;;4.10;1.00;;;;;;4766310;30;20199;-86
2023/01/24 02:22:53;;;;;;;19.42;13.40;;;4.10;1.00;;;;;;4782198;29;20216;-85
2023/01/24 02:25:22;;;;;;;18.75;12.43;;;4.00;1.00;;;;;;4767799;30;20340;-86
2023/01/24 02:27:47;;;;;;;20.70;12.75;;;4.00;75.50;;;;;;4783379;29;20611;-86
2023/01/24 02:30:13;;;;;;;19.63;11.77;;;4.00;99.90;;;;;;4767333;30;20192;-86
2023/01/24 02:32:39;;;;;;;16.73;12.33;;;4.00;99.90;;;;;;4781947;29;20223;-86
2023/01/24 02:35:05;;;;;;;19.40;12.03;;;4.00;99.90;;;;;;4768618;30;20223;-88
2023/01/24 02:37:32;;;;;;;19.63;12.43;;;4.00;99.90;;;;;;4765361;30;20204;-85
2023/01/24 02:40:04;;;;;;;18.85;12.60;;;4.00;99.90;;;;;;4766859;30;20549;-88
2023/01/24 02:42:33;;;;;;;17.95;11.82;;;4.00;99.90;;;;;;4764478;30;20250;-86
2023/01/24 02:45:14;;;;;;;24.63;12.45;;;4.00;99.90;;;;;;4767594;30;20202;-85
2023/01/24 02:47:48;;;;;;;18.15;12.90;;;4.00;99.90;;;;;;4768581;30;20302;-86
2023/01/24 02:50:15;;;;;;;20.83;13.43;;;3.90;99.90;;;;;;4768588;30;20195;-86
2023/01/24 02:55:25;;;;;;;18.35;11.60;;;3.90;1.00;;;;;;4766639;30;20238;-86
2023/01/24 02:58:06;;;;;;;19.37;12.77;;;3.90;1.00;;;;;;4767434;30;20223;-86
2023/01/24 03:00:38;;;;;;;18.50;12.32;;;3.90;1.00;;;;;;4766744;30;20195;-85
2023/01/24 03:03:05;;;;;;;21.88;13.57;;;3.90;1.00;;;;;;4768289;30;20239;-86
2023/01/24 03:05:39;;;;;;;18.15;12.77;;;3.80;1.00;;;;;;4767249;30;20196;-86
2023/01/24 03:08:08;;;;;;;19.55;12.88;;;3.80;1.00;;;;;;4769201;30;20215;-86
2023/01/24 03:10:34;;;;;;;20.42;13.70;;;3.80;9.00;;;;;;4768345;30;20664;-87
2023/01/24 03:34:53;;;;;;;13.57;9.55;;;3.60;1.00;;;;;;4767616;30;20248;-86
2023/01/24 03:40:09;;;;;;;12.23;9.02;;;3.60;1.00;;;;;;4768202;30;20244;-86
2023/01/24 03:42:46;;;;;;;16.52;10.50;;;3.60;1.00;;;;;;4767490;30;20207;-86
2023/01/24 03:45:15;;;;;;;14.15;9.73;;;3.60;1.00;;;;;;4777473;29;20249;-85
2023/01/24 03:47:45;;;;;;;14.48;10.57;;;3.60;1.00;;;;;;4768035;30;20215;-86
2023/01/24 03:52:55;;;;;;;13.85;9.35;;;3.60;1.00;;;;;;4768875;30;20234;-86
2023/01/24 03:55:21;;;;;;;13.20;8.93;;;3.60;1.00;;;;;;4784370;30;20187;-86
2023/01/24 03:57:47;;;;;;;15.93;10.80;;;3.60;99.90;;;;;;4786135;30;20230;-86
2023/01/24 04:00:13;;;;;;;12.27;8.95;;;3.60;1.00;;;;;;4784417;30;20196;-86
2023/01/24 04:02:39;;;;;;;16.40;10.50;;;3.60;1.00;;;;;;4779522;30;20650;-86
2023/01/24 04:05:13;;;;;;;13.33;8.87;;;3.70;1.00;;;;;;4777896;30;20537;-86
2023/01/24 04:07:39;;;;;;;18.77;9.85;;;3.70;1.00;;;;;;4785158;30;20218;-86
2023/01/24 04:10:05;;;;;;;15.17;10.00;;;3.70;1.00;;;;;;4770555;30;20188;-86
2023/01/24 04:12:31;;;;;;;13.25;10.30;;;3.70;1.00;;;;;;4782078;29;20226;-85
2023/01/24 04:14:56;;;;;;;15.03;10.47;;;3.70;1.00;;;;;;4767634;30;20311;-88
2023/01/24 04:17:22;;;;;;;16.50;11.70;;;3.70;1.00;;;;;;4768843;30;20195;-85
2023/01/24 04:19:47;;;;;;;17.23;10.80;;;3.80;1.00;;;;;;4768392;30;20486;-86
2023/01/24 04:22:15;;;;;;;15.07;10.70;;;3.80;1.00;;;;;;4767297;29;20243;-87
2023/01/24 04:24:41;;;;;;;16.75;10.10;;;3.80;1.00;;;;;;4765285;30;20191;-85
2023/01/24 04:27:06;;;;;;;15.17;10.60;;;3.70;99.90;;;;;;4767231;30;20211;-85
2023/01/24 04:29:32;;;;;;;16.07;10.50;;;3.70;1.00;;;;;;4767780;30;20261;-86
2023/01/24 04:31:57;;;;;;;17.80;12.00;;;3.60;19.50;;;;;;4766207;30;20183;-85
2023/01/24 04:34:23;;;;;;;19.97;12.23;;;3.60;24.30;;;;;;4766081;30;20179;-85
2023/01/24 04:36:48;;;;;;;15.57;10.80;;;3.60;91.50;;;;;;4766420;30;20279;-86
2023/01/24 04:39:14;;;;;;;16.40;11.23;;;3.70;99.90;;;;;;4767265;30;20194;-86
2023/01/24 04:41:39;;;;;;;16.43;11.30;;;3.60;99.90;;;;;;4764140;30;20195;-89
2023/01/24 04:44:05;;;;;;;15.97;12.20;;;3.60;99.90;;;;;;4767180;30;20750;-88
2023/01/24 04:46:31;;;;;;;14.43;10.40;;;3.60;99.90;;;;;;4764257;30;20228;-88
2023/01/24 04:48:56;;;;;;;17.03;12.30;;;3.60;99.90;;;;;;4767129;30;20305;-88
2023/01/24 04:51:22;;;;;;;17.07;11.90;;;3.60;1.00;;;;;;4763964;30;20562;-88
2023/01/24 04:53:47;;;;;;;17.97;11.97;;;3.60;1.00;;;;;;4781069;29;20251;-88
2023/01/24 04:56:13;;;;;;;20.03;12.93;;;3.60;1.00;;;;;;4765678;30;20198;-88
2023/01/24 04:58:39;;;;;;;22.33;14.17;;;3.60;1.00;;;;;;4766258;30;20668;-88
2023/01/24 05:01:04;;;;;;;18.27;11.77;;;3.60;1.00;;;;;;4765646;30;20215;-88
2023/01/24 05:03:30;;;;;;;13.87;10.43;;;3.60;1.00;;;;;;4766551;30;20700;-88
2023/01/24 05:05:56;;;;;;;16.07;10.73;;;3.50;99.90;;;;;;4769804;30;20195;-87
2023/01/24 05:08:22;;;;;;;15.13;10.30;;;3.50;99.90;;;;;;4764790;30;20215;-86
2023/01/24 05:10:47;;;;;;;12.68;9.68;;;3.60;99.90;;;;;;4764132;30;20481;-84
2023/01/24 05:13:13;;;;;;;13.03;9.63;;;3.50;1.00;;;;;;4766397;30;20246;-86
2023/01/24 05:15:39;;;;;;;17.10;10.97;;;3.60;1.00;;;;;;4766405;30;20188;-85
2023/01/24 05:18:04;;;;;;;15.57;10.30;;;3.50;1.00;;;;;;4779686;29;21194;-86
2023/01/24 05:20:30;;;;;;;14.77;9.70;;;3.50;99.90;;;;;;4766541;30;20204;-86
2023/01/24 05:22:56;;;;;;;15.23;9.80;;;3.50;99.90;;;;;;4766445;30;20211;-86
2023/01/24 05:25:22;;;;;;;14.65;9.85;;;3.50;99.90;;;;;;4764033;30;21071;-86
2023/01/24 05:27:48;;;;;;;14.83;10.07;;;3.50;99.90;;;;;;4766648;30;20306;-86
2023/01/24 05:30:14;;;;;;;12.43;9.37;;;3.50;99.90;;;;;;4765270;30;20234;-86
2023/01/24 05:32:39;;;;;;;15.37;10.93;;;3.50;99.90;;;;;;4758783;30;20314;-86
2023/01/24 05:35:06;;;;;;;13.70;9.67;;;3.50;99.90;;;;;;4767522;30;20695;-86
2023/01/24 05:37:31;;;;;;;17.25;11.25;;;3.50;99.90;;;;;;4768511;30;20834;-85
2023/01/24 05:39:56;;;;;;;15.33;10.83;;;3.50;99.90;;;;;;4768211;30;20203;-86
2023/01/24 05:42:22;;;;;;;17.37;11.13;;;3.50;99.90;;;;;;4783227;29;20254;-86
2023/01/24 05:44:47;;;;;;;18.33;12.67;;;3.50;99.90;;;;;;4786576;29;20195;-86
2023/01/24 05:47:13;;;;;;;17.20;10.70;;;3.50;99.90;;;;;;4792606;29;20219;-86
2023/01/24 05:49:39;;;;;;;14.37;10.53;;;3.50;99.90;;;;;;4774053;30;20290;-86
2023/01/24 05:52:04;;;;;;;16.17;10.73;;;3.50;99.90;;;;;;4777075;29;20192;-86
2023/01/24 05:54:30;;;;;;;15.00;10.93;;;3.50;92.40;;;;;;4768792;30;20206;-86
2023/01/24 05:56:55;;;;;;;15.30;10.40;;;3.50;61.80;;;;;;4765939;30;20219;-86
2023/01/24 05:59:21;;;;;;;15.87;10.17;;;3.50;99.90;;;;;;4769642;30;20203;-86
2023/01/24 06:01:46;;;;;;;12.17;9.33;;;3.60;99.90;;;;;;4769489;30;20206;-89
2023/01/24 06:04:12;;;;;;;14.30;8.73;;;3.50;99.80;;;;;;4767020;30;20211;-87
2023/01/24 06:06:38;;;;;;;13.60;9.30;;;3.60;11.30;;;;;;4769694;30;20206;-88
2023/01/24 06:09:04;;;;;;;10.60;9.07;;;3.60;1.00;;;;;;4768583;30;20223;-86
2023/01/24 06:11:29;;;;;;;12.83;9.17;;;3.50;1.00;;;;;;4769704;30;20583;-86
2023/01/24 06:13:55;;;;;;;13.47;8.93;;;3.60;1.00;;;;;;4767128;30;20461;-86
2023/01/24 06:16:23;;;;;;;11.40;8.80;;;3.50;99.90;;;;;;4768039;30;20261;-88
2023/01/24 06:18:50;;;;;;;12.90;8.60;;;3.50;99.90;;;;;;4781347;29;20199;-88
2023/01/24 06:21:31;;;;;;;11.80;8.88;;;3.40;99.90;;;;;;4782427;29;20191;-86
2023/01/24 06:23:56;;;;;;;10.95;7.68;;;3.50;1.00;;;;;;4765955;30;20218;-86
2023/01/24 06:26:22;;;;;;;12.40;9.63;;;3.50;99.90;;;;;;4770476;30;20196;-86
2023/01/24 06:28:48;;;;;;;14.73;9.50;;;3.50;99.90;;;;;;4769049;30;20234;-86
2023/01/24 06:31:33;;;;;;;10.77;7.83;;;3.50;99.90;;;;;;4778950;29;20196;-87
2023/01/24 06:34:26;;;;;;;14.02;8.45;;;3.40;99.90;;;;;;4781568;29;20268;-87
2023/01/24 06:37:14;;;;;;;12.88;9.50;;;3.40;99.90;;;;;;4767733;30;20188;-87
2023/01/24 06:39:49;;;;;;;12.30;8.85;;;3.40;99.90;;;;;;4767507;30;20227;-86
2023/01/24 06:42:15;;;;;;;15.25;9.77;;;3.40;99.90;;;;;;4782407;30;20211;-87
2023/01/24 06:44:41;;;;;;;18.20;10.77;;;3.40;99.90;;;;;;4782238;29;20269;-87
2023/01/24 06:47:10;;;;;;;12.83;8.83;;;3.40;99.90;;;;;;4764140;30;20311;-87
2023/01/24 06:49:36;;;;;;;14.10;10.18;;;3.50;1.00;;;;;;4767258;30;20187;-87
2023/01/24 06:52:01;;;;;;;15.30;9.90;;;3.50;1.00;;;;;;4768730;30;20188;-88
2023/01/24 06:54:27;;;;;;;14.37;9.27;;;3.50;1.00;;;;;;4768821;30;20191;-86
2023/01/24 06:56:52;;;;;;;15.33;9.80;;;3.50;99.90;;;;;;4769401;30;20560;-87
2023/01/24 06:59:19;;;;;;;15.47;9.67;;;3.40;99.90;;;;;;4768544;30;20703;-87
2023/01/24 07:01:45;;;;;;;13.43;8.38;;;3.50;99.90;;;;;;4764408;30;20563;-87
2023/01/24 07:04:10;;;;;;;12.70;8.70;;;3.40;99.90;;;;;;4768630;30;20321;-86
2023/01/24 07:06:36;;;;;;;14.30;9.07;;;3.40;99.90;;;;;;4768566;30;20199;-85
2023/01/24 07:09:01;;;;;;;11.83;8.90;;;3.40;99.90;;;;;;4770929;30;20219;-86
2023/01/24 07:11:27;;;;;;;13.63;10.47;;;3.40;99.90;;;;;;4767479;30;20199;-86
2023/01/24 07:13:53;;;;;;;16.50;9.20;;;3.30;82.40;;;;;;4782662;29;20560;-88
2023/01/24 07:16:18;;;;;;;13.20;9.30;;;3.30;99.90;;;;;;4771005;30;20230;-87
2023/01/24 07:18:44;;;;;;;16.30;10.50;;;3.30;99.90;;;;;;4771310;30;20188;-86
2023/01/24 07:21:10;;;;;;;15.00;10.13;;;3.30;99.90;;;;;;4767652;30;20964;-87
2023/01/24 07:23:37;;;;;;;14.95;9.52;;;3.30;99.90;;;;;;4767491;30;20215;-86
2023/01/24 07:26:03;;;;;;;17.13;10.63;;;3.50;1.00;;;;;;4765048;30;20238;-86
2023/01/24 07:28:28;;;;;;;12.68;9.02;;;3.60;1.00;;;;;;4768234;30;20731;-87
2023/01/24 07:30:54;;;;;;;14.80;9.73;;;3.60;99.90;;;;;;4778454;30;20191;-87
2023/01/24 07:33:20;;;;;;;11.37;7.77;;;3.70;99.90;;;;;;4786212;29;20203;-86
2023/01/24 07:35:46;;;;;;;12.97;9.57;;;3.70;99.90;;;;;;4787437;30;20452;-87
2023/01/24 07:38:12;;;;;;;11.07;9.37;;;3.80;93.40;;;;;;4789134;30;20440;-86
2023/01/24 07:40:38;;;;;;;9.13;7.80;;;3.70;1.00;;;;;;4781261;30;20195;-86
2023/01/24 07:43:05;;;;;;;10.95;8.77;;;3.70;99.90;;;;;;4773303;30;20237;-85
2023/01/24 07:45:31;;;;;;;13.32;9.30;;;3.70;99.90;;;;;;4771828;30;20542;-86
2023/01/24 07:47:59;;;;;;;12.32;9.65;;;3.70;99.90;;;;;;4784593;29;20608;-86
2023/01/24 07:50:26;;;;;;;14.30;10.30;;;3.70;99.90;;;;;;4771483;30;20183;-86
2023/01/24 07:52:54;;;;;;;11.93;8.15;;;3.60;1.00;;;;;;4770717;30;20292;-86
2023/01/24 07:55:21;;;;;;;13.27;9.07;;;3.70;1.00;;;;;;4784285;30;20211;-86
2023/01/24 07:57:47;;;;;;;13.50;9.63;;;3.70;99.90;;;;;;4771293;29;20221;-86
2023/01/24 08:00:14;;;;;;;14.55;9.63;;;3.70;99.90;;;;;;4778176;30;20222;-87
2023/01/24 08:02:40;;;;;;;14.18;9.88;;;3.70;99.90;;;;;;4778590;29;20338;-87
2023/01/24 08:05:06;;;;;;;14.57;9.80;;;3.70;99.90;;;;;;4766696;30;20208;-86
2023/01/24 08:07:32;;;;;;;12.90;8.37;;;3.70;99.90;;;;;;4766428;30;21262;-86
2023/01/24 08:09:57;;;;;;;11.77;8.17;;;3.70;99.90;;;;;;4780195;29;20442;-88
2023/01/24 08:12:23;;;;;;;20.93;11.00;;;3.80;99.90;;;;;;4780813;29;20557;-87
2023/01/24 08:14:48;;;;;;;14.40;9.90;;;3.80;99.90;;;;;;4768233;30;20628;-87
2023/01/24 08:17:15;;;;;;;12.90;8.83;;;3.90;99.90;;;;;;4767921;30;20207;-87
2023/01/24 08:19:40;;;;;;;14.70;8.85;;;3.90;99.90;;;;;;4768234;30;20221;-87
2023/01/24 08:22:06;;;;;;;11.07;8.50;;;4.00;99.90;;;;;;4767601;30;20183;-88
2023/01/24 08:24:32;;;;;;;11.53;8.67;;;4.00;99.90;;;;;;4768917;30;20738;-88
2023/01/24 08:26:59;;;;;;;12.90;8.17;;;4.00;83.70;;;;;;4768727;30;20965;-88
2023/01/24 08:29:25;;;;;;;12.95;9.10;;;4.00;1.00;;;;;;4768942;30;20218;-88
2023/01/24 08:31:51;;;;;;;10.40;7.73;;;4.00;1.00;;;;;;4762624;30;20210;-87
2023/01/24 08:34:16;;;;;;;13.30;9.33;;;4.10;1.00;;;;;;4775379;29;20728;-87
2023/01/24 08:36:42;;;;;;;21.37;8.13;;;4.10;1.00;;;;;;4766384;30;20217;-87
2023/01/24 08:39:08;;;;;;;14.00;9.27;;;4.20;7.30;;;;;;4768060;30;20183;-89
2023/01/24 08:41:34;;;;;;;15.33;9.50;;;4.20;1.00;;;;;;4772733;29;20295;-89
2023/01/24 08:44:02;;;;;;;15.38;9.35;;;4.30;1.00;;;;;;4768025;30;20199;-89
2023/01/24 08:46:28;;;;;;;12.88;8.73;;;4.30;1.00;;;;;;4764935;30;20202;-89
2023/01/24 08:48:54;;;;;;;12.43;8.48;;;4.40;1.00;;;;;;4774387;30;20215;-90
2023/01/24 08:51:19;;;;;;;13.20;9.43;;;4.40;1.00;;;;;;4774953;29;20333;-89
2023/01/24 08:53:45;;;;;;;10.60;7.90;;;4.30;1.00;;;;;;4778673;29;20315;-89
2023/01/24 08:56:11;;;;;;;13.70;9.07;;;4.40;1.00;;;;;;4780885;29;20243;-90
2023/01/24 08:58:36;;;;;;;10.93;9.37;;;4.40;1.00;;;;;;4765906;29;20215;-91
2023/01/24 09:01:09;;;;;;;12.67;8.77;;;4.30;1.00;;;;;;4767939;30;20442;-89
2023/01/24 09:03:35;;;;;;;14.68;9.55;;;4.30;1.00;;;;;;4761518;30;20280;-89
2023/01/24 09:06:01;;;;;;;12.75;8.75;;;4.40;1.00;;;;;;4781239;29;20192;-85
2023/01/24 09:08:27;;;;;;;13.43;8.90;;;4.40;1.00;;;;;;4787159;29;20230;-85
2023/01/24 09:10:53;;;;;;;12.50;10.00;;;4.50;99.90;;;;;;4773777;30;20264;-87
2023/01/24 09:13:18;;;;;;;13.40;9.10;;;4.50;99.90;;;;;;4771118;30;20457;-87
2023/01/24 09:15:44;;;;;;;14.03;8.77;;;4.40;99.90;;;;;;4771088;30;20203;-87
2023/01/24 09:18:10;;;;;;;13.40;9.13;;;4.40;99.90;;;;;;4772180;30;20187;-86
2023/01/24 09:20:35;;;;;;;16.77;9.50;;;4.40;99.90;;;;;;4787461;29;20226;-90
2023/01/24 09:23:14;;;;;;;17.07;10.70;;;4.50;99.90;;;;;;4771683;30;20471;-89
2023/01/24 09:25:40;;;;;;;13.00;9.60;;;4.60;99.90;;;;;;4769915;30;20278;-88
2023/01/24 09:28:06;;;;;;;17.92;11.93;;;4.60;99.90;;;;;;4769020;30;20591;-88
2023/01/24 09:30:32;;;;;;;15.30;10.80;;;4.60;99.90;;;;;;4775575;30;20280;-88
2023/01/24 09:32:58;;;;;;;15.77;10.57;;;4.60;99.90;;;;;;4783467;29;20219;-89
2023/01/24 09:35:23;;;;;;;14.20;9.97;;;4.60;99.90;;;;;;4783235;29;20825;-88
2023/01/24 09:37:51;;;;;;;14.83;10.00;;;4.60;99.90;;;;;;4769987;30;20221;-89
2023/01/24 09:40:43;;;;;;;14.00;10.43;;;4.60;99.90;;;;;;4769237;30;20211;-88
2023/01/24 09:43:41;;;;;;;15.00;10.90;;;4.60;99.90;;;;;;4767370;30;21208;-88
2023/01/24 09:46:18;;;;;;;13.90;8.98;;;4.60;99.90;;;;;;4767635;30;20187;-88
2023/01/24 09:48:47;;;;;;;11.75;8.85;;;4.60;99.90;;;;;;4776619;29;20637;-87
2023/01/24 09:51:24;;;;;;;12.10;9.32;;;4.50;99.90;;;;;;4768865;30;20197;-87
2023/01/24 09:53:53;;;;;;;11.70;8.73;;;4.40;94.30;;;;;;4784362;29;20697;-89
2023/01/24 09:56:42;;;;;;;14.68;8.55;;;4.40;99.90;;;;;;4769300;30;21903;-88
2023/01/24 09:59:30;;;;;;;11.80;7.85;;;4.30;99.90;;;;;;4776841;29;20210;-88
2023/01/24 10:01:56;;;;;;;9.73;7.47;;;4.40;99.90;;;;;;4764744;30;20196;-88
2023/01/24 10:04:30;;;;;;;14.57;9.00;;;4.40;99.90;;;;;;4767989;30;20192;-88
2023/01/24 10:07:02;;;;;;;10.77;7.97;;;4.60;99.90;;;;;;4770326;30;20205;-86
2023/01/24 10:10:03;;;;;;;18.58;9.48;;;4.70;99.90;;;;;;4772997;30;20195;-89
2023/01/24 10:12:58;;;;;;;12.48;8.70;;;4.70;99.90;;;;;;4754040;30;20318;-88
2023/01/24 10:15:47;;;;;;;13.63;8.63;;;4.70;99.90;;;;;;4766668;30;20288;-89
2023/01/24 10:18:43;;;;;;;12.00;9.65;;;4.70;92.70;;;;;;4785120;29;20203;-89
2023/01/24 10:21:39;;;;;;;13.00;9.60;;;4.70;63.60;;;;;;4777790;29;20202;-90
2023/01/24 10:24:11;;;;;;;12.93;9.00;;;4.60;25.60;;;;;;4781272;30;20220;-89
2023/01/24 10:26:51;;;;;;;13.35;10.18;;;4.60;33.50;;;;;;4780079;30;20680;-88
2023/01/24 10:29:23;;;;;;;12.68;9.38;;;4.60;29.70;;;;;;4767170;30;20187;-88
2023/01/24 10:32:01;;;;;;;14.10;10.50;;;4.60;28.70;;;;;;4768500;30;20264;-88
2023/01/24 10:34:43;;;;;;;15.18;10.57;;;4.70;14.80;;;;;;4778538;29;20275;-89
2023/01/24 10:37:09;;;;;;;11.98;9.40;;;4.70;11.40;;;;;;4763246;30;20692;-89
2023/01/24 10:39:35;;;;;;;13.53;9.63;;;4.80;24.70;;;;;;4767965;30;20203;-88
2023/01/24 10:42:04;;;;;;;16.20;10.20;;;4.80;9.40;;;;;;4768264;30;20207;-89
2023/01/24 10:44:34;;;;;;;15.73;10.30;;;4.90;38.40;;;;;;4768638;29;20234;-89
2023/01/24 10:47:08;;;;;;;16.73;12.38;;;4.90;20.20;;;;;;4759166;30;20236;-89
2023/01/24 10:49:41;;;;;;;18.17;11.70;;;4.90;1.00;;;;;;4780417;29;20203;-89
2023/01/24 10:52:19;;;;;;;16.20;10.95;;;4.90;3.10;;;;;;4762800;30;20189;-89
2023/01/24 10:54:48;;;;;;;18.55;9.68;;;5.00;14.00;;;;;;4769295;30;20278;-89
2023/01/24 10:57:42;;;;;;;14.43;10.30;;;4.90;1.00;;;;;;4769819;29;20196;-89
2023/01/24 11:00:33;;;;;;;18.45;12.30;;;4.90;1.00;;;;;;4769892;30;20203;-88
2023/01/24 11:03:06;;;;;;;17.90;11.75;;;4.90;1.00;;;;;;4767636;30;20215;-88
2023/01/24 11:05:44;;;;;;;16.05;11.32;;;4.90;7.10;;;;;;4771393;30;20286;-89
2023/01/24 11:08:19;;;;;;;12.82;9.60;;;5.00;14.40;;;;;;4782250;29;20215;-89
2023/01/24 11:10:45;;;;;;;17.27;11.70;;;5.00;1.00;;;;;;4780537;29;20278;-88
2023/01/24 11:13:36;;;;;;;14.73;10.50;;;5.00;1.00;;;;;;4764817;30;20302;-89
2023/01/24 11:16:20;;;;;;;22.30;10.95;;;4.90;1.00;;;;;;4764723;30;20192;-89
2023/01/24 11:18:51;;;;;;;15.07;10.27;;;4.90;1.00;;;;;;4764567;30;20212;-89
2023/01/24 11:21:18;;;;;;;19.50;13.35;;;4.80;12.60;;;;;;4768159;30;20329;-89
2023/01/24 11:24:02;;;;;;;17.77;12.77;;;4.90;29.40;;;;;;4766519;30;20223;-88
2023/01/24 11:26:31;;;;;;;17.35;11.30;;;4.90;19.00;;;;;;4783207;29;20196;-89
2023/01/24 11:29:16;;;;;;;20.75;13.43;;;4.90;59.80;;;;;;4804168;29;20210;-88
2023/01/24 11:32:18;;;;;;;18.85;12.40;;;4.90;52.90;;;;;;4789203;30;20200;-90
2023/01/24 11:35:02;;;;;;;21.23;13.00;;;4.90;12.00;;;;;;4802221;30;20254;-88
2023/01/24 11:37:56;;;;;;;15.75;11.30;;;4.90;1.00;;;;;;4786390;29;20190;-89
2023/01/24 11:40:34;;;;;;;14.30;10.32;;;4.90;1.00;;;;;;4786292;30;20259;-89
2023/01/24 11:43:12;;;;;;;13.18;9.27;;;4.90;1.00;;;;;;4764177;30;20219;-88
2023/01/24 11:45:51;;;;;;;15.95;10.50;;;4.90;1.00;;;;;;4767726;30;20191;-88
2023/01/24 11:48:28;;;;;;;16.38;9.60;;;5.00;1.00;;;;;;4767408;30;20211;-89
2023/01/24 11:51:29;;;;;;;13.75;10.65;;;5.10;1.00;;;;;;4768100;30;20244;-88
2023/01/24 11:54:21;;;;;;;17.90;10.48;;;5.20;1.00;;;;;;4767265;30;20260;-88
2023/01/24 11:56:59;;;;;;;16.55;13.00;;;5.20;1.00;;;;;;4766972;30;20195;-89
2023/01/24 11:59:41;;;;;;;18.70;13.07;;;5.10;1.00;;;;;;4776365;29;20226;-88
2023/01/24 12:02:29;;;;;;;17.05;12.38;;;5.10;1.00;;;;;;4759278;30;20219;-88
2023/01/24 12:05:09;;;;;;;15.85;11.70;;;5.20;1.00;;;;;;4764417;30;20266;-87
2023/01/24 12:08:04;;;;;;;24.02;17.90;;;5.20;1.00;;;;;;4764869;30;20225;-89
2023/01/24 12:10:51;;;;;;;19.08;14.02;;;5.20;1.00;;;;;;4764808;30;20187;-88
2023/01/24 12:13:41;;;;;;;18.55;11.98;;;5.10;1.00;;;;;;4763762;30;20212;-88
2023/01/24 12:16:44;;;;;;;15.85;11.85;;;5.10;1.00;;;;;;4761918;30;20203;-88
2023/01/24 12:19:41;;;;;;;19.70;14.10;;;5.10;1.00;;;;;;4762021;30;20279;-88
2023/01/24 12:22:17;;;;;;;18.63;13.00;;;5.10;1.00;;;;;;4764636;30;20196;-87
2023/01/24 12:24:54;;;;;;;17.70;11.93;;;5.10;1.00;;;;;;4764600;30;20207;-88
2023/01/24 12:27:24;;;;;;;15.25;12.00;;;5.10;1.00;;;;;;4761393;30;20212;-89
2023/01/24 12:29:59;;;;;;;18.55;12.38;;;5.10;1.00;;;;;;4767231;30;20195;-89
2023/01/24 12:32:46;;;;;;;19.65;13.50;;;5.20;1.00;;;;;;4765713;30;20242;-88
2023/01/24 12:35:28;;;;;;;17.73;12.68;;;5.10;1.00;;;;;;4771075;30;20215;-87
2023/01/24 12:38:12;;;;;;;15.15;10.65;;;5.10;1.00;;;;;;4769460;29;20199;-88
2023/01/24 12:40:52;;;;;;;17.70;12.70;;;5.10;1.00;;;;;;4773382;30;20213;-88
2023/01/24 12:43:39;;;;;;;18.33;12.88;;;5.10;1.00;;;;;;4770620;29;20227;-88
2023/01/24 12:46:35;;;;;;;20.88;12.98;;;4.90;1.00;;;;;;4762003;30;20462;-88
2023/01/24 12:49:36;;;;;;;17.67;11.52;;;4.90;1.00;;;;;;4779096;30;20218;-88
2023/01/24 12:52:18;;;;;;;17.38;11.27;;;5.00;1.00;;;;;;4762272;29;20187;-86
2023/01/24 12:54:53;;;;;;;17.73;12.35;;;5.10;1.00;;;;;;4776887;30;20222;-88
2023/01/24 12:57:31;;;;;;;15.80;12.85;;;5.10;1.00;;;;;;4769946;30;20289;-89
2023/01/24 12:59:56;;;;;;;17.00;13.50;;;5.10;1.00;;;;;;4767210;30;20570;-88
2023/01/24 13:02:46;;;;;;;20.17;12.97;;;5.10;1.00;;;;;;4790190;29;20226;-88
2023/01/24 13:05:28;;;;;;;18.50;12.38;;;5.00;1.00;;;;;;4770996;30;20196;-88
2023/01/24 13:08:19;;;;;;;17.58;13.27;;;5.00;1.00;;;;;;4781480;30;20242;-88
2023/01/24 13:11:00;;;;;;;19.30;12.73;;;5.10;1.00;;;;;;4770022;29;20183;-89
2023/01/24 13:13:33;;;;;;;15.63;11.95;;;5.20;1.00;;;;;;4781051;29;20685;-88
2023/01/24 13:16:11;;;;;;;17.65;13.73;;;5.20;1.00;;;;;;4771524;29;20783;-88
2023/01/24 13:18:55;;;;;;;19.88;13.20;;;5.10;1.00;;;;;;4758246;30;20270;-89
2023/01/24 13:21:35;;;;;;;17.00;12.23;;;5.00;1.00;;;;;;4777923;30;20214;-88
2023/01/24 13:27:42;;;;;;;20.17;12.48;;;5.00;1.00;;;;;;4766914;30;20195;-87
2023/01/24 13:30:32;;;;;;;20.55;13.98;;;4.90;1.00;;;;;;4769791;29;20191;-89
2023/01/24 13:33:00;;;;;;;20.73;13.50;;;5.00;1.00;;;;;;4782155;29;20231;-88
2023/01/24 13:35:27;;;;;;;18.35;13.45;;;5.00;1.00;;;;;;4793543;29;20199;-88
2023/01/24 13:37:58;;;;;;;23.67;17.13;;;4.90;1.00;;;;;;4775330;30;20196;-88
2023/01/24 13:40:30;;;;;;;23.13;15.20;;;4.90;1.00;;;;;;4774861;30;20191;-87
2023/01/24 13:42:57;;;;;;;20.58;14.80;;;4.80;1.00;;;;;;4785542;29;20251;-89
2023/01/24 13:45:23;;;;;;;23.48;14.57;;;4.70;1.00;;;;;;4774530;29;20560;-88